createdAt,value
2019-05-02T00:01:20.295Z,9.30
2019-05-02T00:03:46.957Z,9.10
2019-05-02T00:06:13.576Z,9.20
2019-05-02T00:08:40.945Z,9.30
2019-05-02T00:11:09.503Z,9.60
2019-05-02T00:13:36.102Z,9.70
2019-05-02T00:16:02.973Z,9.70
2019-05-02T00:18:32.072Z,9.70
2019-05-02T00:21:01.460Z,9.70
2019-05-02T00:23:28.033Z,9.70
2019-05-02T00:25:55.419Z,9.70
2019-05-02T00:28:21.950Z,9.60
2019-05-02T00:30:49.605Z,9.50
2019-05-02T00:33:16.543Z,9.30
2019-05-02T00:35:46.245Z,9.40
2019-05-02T00:38:12.154Z,9.40
2019-05-02T00:40:38.725Z,9.50
2019-05-02T00:43:05.242Z,9.30
2019-05-02T00:45:31.924Z,9.10
2019-05-02T00:48:03.402Z,9.30
2019-05-02T00:50:31.776Z,9.00
2019-05-02T00:52:58.232Z,9.00
2019-05-02T00:55:28.777Z,9.20
2019-05-02T00:57:55.756Z,9.10
2019-05-02T01:00:21.824Z,9.10
2019-05-02T01:02:56.286Z,8.90
2019-05-02T01:05:27.465Z,9.00
2019-05-02T01:07:55.884Z,9.00
2019-05-02T01:10:22.549Z,9.00
2019-05-02T01:12:49.060Z,9.10
2019-05-02T01:15:15.709Z,8.90
2019-05-02T01:17:42.188Z,9.00
2019-05-02T01:20:09.124Z,8.80
2019-05-02T01:22:35.588Z,8.80
2019-05-02T01:25:06.052Z,8.80
2019-05-02T01:27:41.149Z,8.90
2019-05-02T01:30:20.282Z,9.00
2019-05-02T01:33:01.466Z,9.20
2019-05-02T01:35:35.292Z,9.20
2019-05-02T01:38:20.400Z,8.90
2019-05-02T01:40:53.212Z,8.90
2019-05-02T01:43:20.128Z,8.80
2019-05-02T01:45:48.316Z,8.80
2019-05-02T01:48:16.733Z,8.80
2019-05-02T01:50:43.456Z,8.60
2019-05-02T01:53:09.918Z,8.60
2019-05-02T01:55:36.398Z,8.60
2019-05-02T01:58:03.067Z,8.40
2019-05-02T02:00:30.520Z,8.40
2019-05-02T02:02:57.225Z,8.40
2019-05-02T02:05:27.622Z,8.30
2019-05-02T02:07:55.457Z,8.30
2019-05-02T02:10:21.086Z,8.40
2019-05-02T02:13:02.909Z,8.30
2019-05-02T02:15:17.537Z,8.10
2019-05-02T02:17:46.866Z,8.00
2019-05-02T02:20:15.647Z,8.10
2019-05-02T02:22:44.152Z,7.90
2019-05-02T02:25:32.253Z,7.60
2019-05-02T02:28:01.772Z,7.50
2019-05-02T02:30:29.357Z,7.60
2019-05-02T02:33:00.497Z,7.70
2019-05-02T02:35:24.047Z,7.90
2019-05-02T02:37:52.948Z,8.10
2019-05-02T02:40:18.762Z,8.20
2019-05-02T02:42:45.226Z,8.00
2019-05-02T02:45:26.221Z,8.10
2019-05-02T02:47:59.210Z,8.00
2019-05-02T02:50:21.075Z,8.10
2019-05-02T02:52:47.539Z,8.20
2019-05-02T02:55:16.139Z,8.00
2019-05-02T02:57:42.508Z,7.90
2019-05-02T03:00:11.148Z,7.70
2019-05-02T03:02:47.692Z,7.80
2019-05-02T03:05:05.892Z,7.90
2019-05-02T03:07:32.329Z,7.90
2019-05-02T03:09:59.715Z,7.60
2019-05-02T03:12:29.376Z,7.60
2019-05-02T03:15:00.463Z,7.50
2019-05-02T03:17:28.741Z,7.40
2019-05-02T03:20:01.095Z,7.50
2019-05-02T03:22:23.663Z,7.50
2019-05-02T03:24:50.100Z,7.50
2019-05-02T03:27:16.538Z,7.50
2019-05-02T03:29:44.493Z,7.50
2019-05-02T03:32:16.744Z,7.60
2019-05-02T03:34:52.874Z,7.50
2019-05-02T03:37:13.453Z,7.70
2019-05-02T03:39:37.204Z,7.50
2019-05-02T03:42:05.089Z,7.40
2019-05-02T03:44:32.295Z,7.30
2019-05-02T03:47:02.076Z,7.40
2019-05-02T03:49:27.402Z,7.50
2019-05-02T03:51:56.012Z,7.80
2019-05-02T03:54:22.244Z,7.90
2019-05-02T03:56:51.386Z,7.90
2019-05-02T03:59:17.055Z,7.80
2019-05-02T04:01:43.976Z,7.50
2019-05-02T04:04:14.115Z,7.50
2019-05-02T04:06:39.386Z,7.50
2019-05-02T04:09:06.551Z,7.60
2019-05-02T04:11:38.942Z,7.60
2019-05-02T04:14:01.649Z,7.60
2019-05-02T04:16:28.506Z,7.70
2019-05-02T04:18:58.266Z,7.70
2019-05-02T04:21:26.274Z,7.70
2019-05-02T04:23:52.863Z,7.80
2019-05-02T04:26:19.550Z,7.80
2019-05-02T04:28:51.870Z,7.70
2019-05-02T04:31:14.456Z,7.50
2019-05-02T04:33:41.119Z,7.70
2019-05-02T04:36:14.757Z,7.70
2019-05-02T04:38:44.364Z,7.50
2019-05-02T04:41:04.373Z,7.50
2019-05-02T04:43:30.855Z,7.50
2019-05-02T04:46:00.008Z,7.40
2019-05-02T04:48:28.368Z,7.50
2019-05-02T04:50:59.417Z,7.70
2019-05-02T04:53:25.851Z,7.80
2019-05-02T04:56:01.523Z,7.90
2019-05-02T04:58:27.667Z,8.00
2019-05-02T05:00:53.476Z,7.80
2019-05-02T05:03:18.129Z,8.20
2019-05-02T05:05:43.683Z,8.40
2019-05-02T05:08:10.154Z,8.40
2019-05-02T05:10:41.397Z,8.50
2019-05-02T05:13:04.897Z,8.40
2019-05-02T05:15:40.170Z,8.40
2019-05-02T05:18:04.306Z,8.70
2019-05-02T05:20:28.033Z,8.80
2019-05-02T05:22:54.602Z,8.90
2019-05-02T05:25:27.682Z,9.00
2019-05-02T05:27:58.687Z,8.90
2019-05-02T05:30:23.572Z,9.00
2019-05-02T05:32:50.021Z,9.10
2019-05-02T05:35:17.749Z,9.20
2019-05-02T05:37:51.457Z,9.30
2019-05-02T05:40:13.643Z,9.40
2019-05-02T05:42:40.089Z,9.40
2019-05-02T05:45:09.666Z,9.50
2019-05-02T05:47:35.400Z,9.50
2019-05-02T05:50:02.311Z,9.60
2019-05-02T05:52:33.231Z,9.70
2019-05-02T05:54:57.941Z,9.80
2019-05-02T05:57:24.493Z,10.00
2019-05-02T05:59:50.929Z,9.90
2019-05-02T06:02:18.379Z,9.90
2019-05-02T06:04:44.995Z,10.00
2019-05-02T06:07:11.441Z,10.30
2019-05-02T06:09:37.923Z,10.30
2019-05-02T06:12:04.396Z,10.30
2019-05-02T06:14:30.827Z,10.50
2019-05-02T06:16:57.289Z,10.40
2019-05-02T06:19:23.736Z,10.50
2019-05-02T06:21:50.198Z,10.90
2019-05-02T06:24:17.127Z,10.90
2019-05-02T06:26:44.687Z,10.90
2019-05-02T06:29:13.065Z,11.00
2019-05-02T06:31:42.983Z,11.20
2019-05-02T06:34:08.426Z,11.10
2019-05-02T06:36:36.844Z,11.20
2019-05-02T06:39:04.989Z,11.50
2019-05-02T06:41:31.638Z,11.50
2019-05-02T06:43:58.106Z,11.70
2019-05-02T06:46:27.828Z,11.80
2019-05-02T06:48:53.680Z,11.80
2019-05-02T06:51:21.142Z,11.70
2019-05-02T06:53:48.980Z,11.70
2019-05-02T06:56:15.602Z,11.70
2019-05-02T06:58:43.340Z,11.70
2019-05-02T07:01:10.099Z,12.00
2019-05-02T07:03:41.172Z,12.30
2019-05-02T07:06:07.546Z,12.30
2019-05-02T07:08:33.376Z,12.30
2019-05-02T07:11:19.934Z,12.30
2019-05-02T07:14:12.945Z,12.50
2019-05-02T07:19:27.258Z,12.90
2019-05-02T07:22:04.440Z,13.00
2019-05-02T07:24:39.288Z,13.20
2019-05-02T07:27:19.887Z,13.30
2019-05-02T07:29:57.784Z,13.20
2019-05-02T07:32:24.619Z,13.10
2019-05-02T07:34:57.116Z,13.30
2019-05-02T07:37:33.187Z,13.70
2019-05-02T07:40:12.014Z,13.60
2019-05-02T07:42:41.883Z,13.90
2019-05-02T07:45:09.281Z,14.00
2019-05-02T07:47:40.267Z,14.10
2019-05-02T07:50:05.418Z,14.20
2019-05-02T07:52:33.833Z,14.30
2019-05-02T07:55:02.623Z,14.40
2019-05-02T07:57:30.394Z,14.60
2019-05-02T08:00:00.453Z,14.70
2019-05-02T08:02:26.389Z,14.90
2019-05-02T08:04:52.996Z,15.00
2019-05-02T08:07:21.108Z,15.20
2019-05-02T08:09:47.778Z,15.30
2019-05-02T08:12:14.513Z,15.40
2019-05-02T08:14:41.055Z,15.50
2019-05-02T08:17:16.185Z,15.70
2019-05-02T08:19:37.565Z,15.90
2019-05-02T08:22:12.966Z,16.00
2019-05-02T08:24:33.017Z,16.00
2019-05-02T08:27:05.574Z,16.30
2019-05-02T08:29:32.909Z,16.60
2019-05-02T08:31:59.529Z,16.70
2019-05-02T08:34:32.703Z,16.80
2019-05-02T08:37:03.224Z,17.10
2019-05-02T08:39:33.198Z,17.20
2019-05-02T08:41:57.980Z,17.30
2019-05-02T08:44:24.718Z,17.40
2019-05-02T08:46:53.246Z,17.50
2019-05-02T08:49:20.095Z,17.60
2019-05-02T08:51:46.618Z,17.80
2019-05-02T08:54:13.165Z,18.10
2019-05-02T08:56:39.743Z,18.20
2019-05-02T08:59:06.207Z,18.00
2019-05-02T09:01:35.276Z,18.10
2019-05-02T09:04:01.004Z,18.50
2019-05-02T09:06:27.661Z,18.40
2019-05-02T09:08:54.126Z,18.70
2019-05-02T09:11:20.640Z,19.10
2019-05-02T09:13:47.123Z,19.30
2019-05-02T09:16:13.568Z,19.50
2019-05-02T09:18:50.019Z,19.30
2019-05-02T09:21:08.602Z,19.30
2019-05-02T09:23:37.015Z,19.20
2019-05-02T09:26:03.493Z,19.40
2019-05-02T09:28:31.973Z,19.60
2019-05-02T09:31:05.074Z,19.70
2019-05-02T09:33:26.576Z,20.10
2019-05-02T09:35:53.038Z,20.30
2019-05-02T09:38:19.539Z,20.20
2019-05-02T09:40:51.551Z,20.60
2019-05-02T09:43:14.235Z,20.60
2019-05-02T09:45:43.194Z,20.40
2019-05-02T09:48:09.006Z,20.60
2019-05-02T09:50:38.501Z,20.70
2019-05-02T09:53:05.117Z,20.50
2019-05-02T09:55:31.840Z,20.40
2019-05-02T09:57:58.509Z,20.70
2019-05-02T10:00:36.300Z,20.70
2019-05-02T10:03:03.433Z,20.70
2019-05-02T10:05:32.095Z,21.00
2019-05-02T10:08:02.983Z,21.30
2019-05-02T10:10:28.211Z,21.20
2019-05-02T10:12:54.675Z,20.80
2019-05-02T10:15:22.209Z,20.90
2019-05-02T10:17:49.128Z,21.00
2019-05-02T10:20:16.111Z,21.10
2019-05-02T10:22:43.820Z,21.10
2019-05-02T10:25:12.270Z,21.00
2019-05-02T10:27:43.868Z,20.80
2019-05-02T10:30:13.417Z,21.20
2019-05-02T10:32:36.584Z,20.80
2019-05-02T10:35:07.375Z,20.60
2019-05-02T10:37:38.377Z,20.90
2019-05-02T10:40:07.739Z,20.80
2019-05-02T10:42:34.792Z,20.70
2019-05-02T10:45:02.788Z,20.80
2019-05-02T10:47:32.296Z,20.60
2019-05-02T10:50:14.002Z,20.70
2019-05-02T10:52:42.493Z,20.80
2019-05-02T10:55:09.786Z,21.00
2019-05-02T10:57:36.266Z,21.20
2019-05-02T11:00:09.670Z,21.10
2019-05-02T11:02:41.927Z,21.20
2019-05-02T11:05:16.859Z,21.20
2019-05-02T11:07:42.009Z,21.20
2019-05-02T11:10:08.854Z,21.40
2019-05-02T11:12:44.411Z,21.40
2019-05-02T11:15:10.495Z,21.40
2019-05-02T11:17:39.431Z,21.40
2019-05-02T11:20:08.129Z,21.40
2019-05-02T11:22:34.693Z,21.60
2019-05-02T11:25:02.000Z,21.80
2019-05-02T11:27:28.686Z,21.80
2019-05-02T11:29:55.261Z,21.90
2019-05-02T11:32:22.175Z,22.10
2019-05-02T11:34:49.843Z,22.20
2019-05-02T11:37:16.307Z,22.40
2019-05-02T11:39:51.749Z,22.30
2019-05-02T11:42:17.765Z,22.30
2019-05-02T11:44:44.861Z,22.20
2019-05-02T11:47:12.630Z,22.10
2019-05-02T11:49:46.755Z,21.90
2019-05-02T11:52:13.471Z,22.10
2019-05-02T11:54:44.695Z,22.30
2019-05-02T11:57:08.313Z,22.20
2019-05-02T11:59:34.774Z,22.60
2019-05-02T12:02:03.143Z,22.50
2019-05-02T12:04:29.619Z,22.50
2019-05-02T12:07:01.075Z,22.70
2019-05-02T12:09:24.653Z,22.80
2019-05-02T12:11:56.551Z,22.70
2019-05-02T12:14:20.643Z,23.00
2019-05-02T12:16:47.073Z,22.20
2019-05-02T12:19:14.970Z,22.10
2019-05-02T12:21:45.269Z,22.40
2019-05-02T12:24:13.711Z,22.60
2019-05-02T12:26:41.943Z,22.40
2019-05-02T12:29:08.407Z,22.80
2019-05-02T12:31:35.052Z,22.60
2019-05-02T12:34:03.197Z,22.50
2019-05-02T12:36:29.775Z,22.90
2019-05-02T12:38:56.341Z,23.00
2019-05-02T12:41:25.161Z,22.90
2019-05-02T12:43:52.406Z,23.00
2019-05-02T12:46:19.150Z,22.90
2019-05-02T12:48:45.626Z,23.00
2019-05-02T12:51:12.709Z,23.00
2019-05-02T12:53:39.215Z,22.90
2019-05-02T12:56:06.725Z,23.10
2019-05-02T12:58:33.243Z,23.50
2019-05-02T13:00:59.663Z,22.90
2019-05-02T13:03:37.172Z,23.00
2019-05-02T13:06:04.101Z,23.30
2019-05-02T13:08:32.244Z,23.60
2019-05-02T15:08:47.862Z,29.70
2019-05-02T15:11:14.480Z,30.10
2019-05-02T15:13:41.752Z,29.90
2019-05-02T15:16:10.459Z,30.40
2019-05-02T15:18:38.670Z,29.40
2019-05-02T15:21:12.358Z,29.80
2019-05-02T15:23:33.710Z,29.80
2019-05-02T15:26:00.175Z,28.30
2019-05-02T15:28:30.300Z,28.60
2019-05-02T15:31:04.925Z,27.90
2019-05-02T15:33:34.501Z,27.10
2019-05-02T15:36:07.286Z,27.90
2019-05-02T15:38:32.382Z,28.60
2019-05-02T15:41:03.792Z,27.70
2019-05-02T15:43:27.312Z,27.30
2019-05-02T15:45:53.760Z,26.90
2019-05-02T15:48:26.097Z,27.50
2019-05-02T15:50:52.467Z,27.80
2019-05-02T15:53:19.938Z,27.90
2019-05-02T15:55:46.387Z,27.60
2019-05-02T15:58:23.065Z,27.60
2019-05-02T16:01:05.006Z,28.20
2019-05-02T16:03:45.763Z,28.80
2019-05-02T16:06:11.757Z,26.80
2019-05-02T16:08:47.791Z,26.80
2019-05-02T16:11:17.034Z,26.60
2019-05-02T16:13:47.079Z,25.60
2019-05-02T16:16:13.147Z,25.70
2019-05-02T16:18:41.069Z,24.20
2019-05-02T16:21:28.452Z,24.20
2019-05-02T16:24:12.110Z,23.40
2019-05-02T16:26:44.913Z,23.10
2019-05-02T16:29:05.832Z,22.60
2019-05-02T16:31:34.402Z,22.20
2019-05-02T16:34:02.331Z,22.20
2019-05-02T16:39:18.533Z,21.90
2019-05-02T16:41:50.566Z,21.80
2019-05-02T16:44:32.233Z,21.60
2019-05-02T16:47:02.834Z,21.70
2019-05-02T16:49:32.194Z,21.70
2019-05-02T16:52:05.012Z,21.40
2019-05-02T16:54:27.461Z,21.20
2019-05-02T16:56:54.168Z,21.10
2019-05-02T16:59:21.436Z,21.10
2019-05-02T17:01:48.939Z,20.80
2019-05-02T17:04:17.373Z,20.60
2019-05-02T17:06:45.848Z,20.60
2019-05-02T17:09:38.805Z,20.30
2019-05-02T17:12:11.889Z,20.30
2019-05-02T17:14:43.536Z,20.10
2019-05-02T17:17:12.172Z,20.00
2019-05-02T17:19:38.376Z,19.90
2019-05-02T17:22:04.833Z,19.80
2019-05-02T17:24:32.261Z,19.70
2019-05-02T17:26:58.934Z,19.40
2019-05-02T17:29:25.519Z,19.30
2019-05-02T17:31:55.411Z,19.20
2019-05-02T17:34:23.071Z,19.10
2019-05-02T17:36:48.827Z,18.90
2019-05-02T17:39:15.286Z,18.70
2019-05-02T17:41:45.610Z,18.70
2019-05-02T17:44:12.915Z,18.60
2019-05-02T17:46:39.286Z,18.50
2019-05-02T17:49:06.932Z,18.40
2019-05-02T17:51:51.957Z,18.30
2019-05-02T17:54:22.830Z,18.20
2019-05-02T17:56:46.641Z,18.10
2019-05-02T17:59:13.088Z,18.10
2019-05-02T18:01:41.781Z,18.00
2019-05-02T18:04:12.631Z,18.00
2019-05-02T18:06:36.758Z,17.90
2019-05-02T18:09:05.341Z,17.80
2019-05-02T18:11:36.518Z,17.80
2019-05-02T18:14:02.371Z,17.70
2019-05-02T18:16:28.534Z,17.70
2019-05-02T18:18:55.026Z,17.60
2019-05-02T18:21:25.499Z,17.60
2019-05-02T18:23:51.906Z,17.50
2019-05-02T18:26:18.435Z,17.50
2019-05-02T18:28:49.277Z,17.50
2019-05-02T18:31:14.556Z,17.40
2019-05-02T18:33:42.497Z,17.30
2019-05-02T18:36:10.052Z,17.20
2019-05-02T18:38:37.107Z,17.10
2019-05-02T18:41:05.820Z,16.90
2019-05-02T18:43:36.163Z,16.70
2019-05-02T18:46:05.992Z,16.70
2019-05-02T18:48:28.850Z,16.50
2019-05-02T18:50:56.435Z,16.50
2019-05-02T18:53:26.975Z,16.80
2019-05-02T18:56:01.645Z,16.70
2019-05-02T18:58:28.871Z,16.60
2019-05-02T19:00:56.322Z,16.50
2019-05-02T19:03:25.670Z,16.30
2019-05-02T19:05:57.280Z,16.10
2019-05-02T19:08:31.206Z,16.00
2019-05-02T19:11:08.504Z,16.20
2019-05-02T19:13:25.524Z,16.30
2019-05-02T19:15:56.099Z,16.30
2019-05-02T19:18:23.261Z,16.20
2019-05-02T19:21:03.237Z,16.20
2019-05-02T19:23:34.967Z,16.20
2019-05-02T19:26:10.027Z,16.20
2019-05-02T19:28:53.359Z,16.10
2019-05-02T19:31:22.454Z,16.10
2019-05-02T19:33:49.437Z,16.00
2019-05-02T19:36:21.736Z,16.00
2019-05-02T19:38:44.825Z,16.10
2019-05-02T19:41:11.740Z,16.00
2019-05-02T19:43:40.325Z,16.00
2019-05-02T19:46:06.993Z,16.00
2019-05-02T19:48:36.884Z,15.60
2019-05-02T19:51:02.420Z,15.30
2019-05-02T19:53:32.068Z,15.20
2019-05-02T19:56:01.490Z,15.10
2019-05-02T19:58:27.041Z,15.30
2019-05-02T20:00:53.696Z,15.40
2019-05-02T20:03:23.299Z,14.90
2019-05-02T20:05:49.274Z,14.90
2019-05-02T20:08:21.480Z,14.90
2019-05-02T20:10:44.214Z,14.60
2019-05-02T20:13:12.019Z,14.40
2019-05-02T20:15:42.188Z,14.40
2019-05-02T20:18:08.759Z,14.50
2019-05-02T20:20:57.339Z,14.30
2019-05-02T20:23:31.246Z,13.80
2019-05-02T20:25:52.443Z,14.10
2019-05-02T20:28:19.129Z,14.10
2019-05-02T20:30:45.771Z,14.20
2019-05-02T20:33:12.856Z,14.10
2019-05-02T20:35:42.145Z,13.50
2019-05-02T20:38:11.147Z,13.40
2019-05-02T20:40:38.945Z,13.70
2019-05-02T20:43:05.837Z,13.90
2019-05-02T20:45:46.082Z,13.80
2019-05-02T20:48:53.373Z,13.10
2019-05-02T20:51:26.741Z,12.90
2019-05-02T20:54:01.950Z,13.40
2019-05-02T20:56:46.306Z,13.60
2019-05-02T20:59:25.429Z,13.30
2019-05-02T21:05:13.166Z,12.80
2019-05-02T21:08:06.633Z,12.80
2019-05-02T21:11:19.990Z,12.80
2019-05-02T21:13:41.717Z,13.10
2019-05-02T21:16:21.707Z,13.20
2019-05-02T21:18:56.988Z,13.00
2019-05-02T21:21:32.610Z,12.90
2019-05-02T21:24:09.657Z,12.90
2019-05-02T21:26:42.260Z,13.10
2019-05-02T21:29:19.656Z,13.20
2019-05-02T21:31:46.147Z,13.30
2019-05-02T21:34:12.792Z,13.30
2019-05-02T21:36:39.331Z,13.30
2019-05-02T21:39:11.884Z,13.20
2019-05-02T21:41:38.657Z,13.10
2019-05-02T21:44:05.302Z,13.10
2019-05-02T21:46:31.907Z,13.20
2019-05-02T21:48:58.594Z,13.40
2019-05-02T21:51:26.951Z,13.20
2019-05-02T21:54:12.214Z,13.20
2019-05-02T21:56:40.599Z,13.30
2019-05-02T21:59:08.651Z,13.20
2019-05-02T22:01:42.239Z,13.20
2019-05-02T22:04:09.213Z,13.20
2019-05-02T22:06:35.677Z,13.10
2019-05-02T22:09:05.845Z,13.20
2019-05-02T22:11:34.580Z,13.40
2019-05-02T22:14:02.378Z,13.40
2019-05-02T22:16:29.161Z,13.50
2019-05-02T22:19:10.353Z,13.50
2019-05-02T22:21:38.034Z,13.50
2019-05-02T22:24:11.231Z,13.60
2019-05-02T22:26:33.050Z,13.30
2019-05-02T22:29:01.768Z,13.40
2019-05-02T22:31:27.871Z,13.50
2019-05-02T22:33:54.343Z,13.40
2019-05-02T22:36:36.738Z,13.60
2019-05-02T22:39:08.372Z,13.60
2019-05-02T22:41:35.546Z,13.70
2019-05-02T22:44:02.184Z,13.70
2019-05-02T22:46:43.186Z,13.90
2019-05-02T22:49:11.911Z,14.00
2019-05-02T22:51:42.726Z,14.00
2019-05-02T22:54:23.288Z,13.90
2019-05-02T22:56:37.892Z,13.90
2019-05-02T22:59:04.540Z,13.90
2019-05-02T23:01:32.399Z,13.90
2019-05-02T23:04:01.862Z,13.90
2019-05-02T23:06:30.487Z,13.90
2019-05-02T23:08:58.201Z,14.10
2019-05-02T23:11:24.645Z,14.10
2019-05-02T23:13:51.753Z,14.00
2019-05-02T23:16:18.386Z,14.10
2019-05-02T23:18:44.808Z,14.10
2019-05-02T23:21:12.675Z,14.20
2019-05-02T23:23:39.538Z,14.30
2019-05-02T23:26:26.092Z,14.30
2019-05-02T23:28:54.664Z,14.30
2019-05-02T23:31:22.553Z,14.30
2019-05-02T23:33:57.824Z,14.20
2019-05-02T23:36:32.511Z,14.20
2019-05-02T23:38:59.217Z,14.00
2019-05-02T23:41:26.641Z,13.80
2019-05-02T23:43:53.193Z,13.60
2019-05-02T23:46:22.240Z,13.50
2019-05-02T23:48:48.749Z,13.60
2019-05-02T23:51:15.303Z,13.50
2019-05-02T23:53:42.260Z,13.30
2019-05-02T23:56:10.006Z,13.30
2019-05-02T23:58:36.564Z,13.40
